Pagrindinis puslapis
METAR-TAF:

METAR-TAF

Oro uostai :

San Andresas, Kolumbija

platuma: 12-35N, ilguma: 081-43W, Aukštis: 1 m

Dabartinis oras

Ataskaita buvo paskelbta 1 valandą ir 1 minutes, ne 20:00 UTC
Vėjas 11 kt iš Šiaurės Rytų, svyruoja nuo Šiaurės ir Rytų/Šiaurės Rytų
Temperatūra 30°C
Drėgmė 66%
Slėgis 1014 hPa
Matomumas 10 km arba daugiau
Mažai debesys ne aukštis 1800 ft
Su prošvaistėmis ne aukštis 20000 ft

METAR: SKSP 212000Z 04011KT 360V060 9999 FEW018 BKN200 30/23 A2995

Laikas: 16:01 (21:01 UTC)

Prognozė

Ataskaita buvo paskelbta 4 valandos ir 31 minutes, ne 16:30 UTC
Prognozė galioja nuo 21 metu 18 UTC su 22 metu 18 UTC
Vėjas 12 kt iš Šiaurės Rytų
Matomumas 10 km arba daugiau
Mažai debesys ne aukštis 1700 ft

TAF: SKSP 211630Z 2118/2218 05012KT 9999 FEW017 TX31/2119Z TN27/2211Z

Orai ataskaitas ir orų prognozės (METAR, TAF).

turimą stotys yra geltonos ir raudonos taškus žemėlapyje.

Perkelti pele per norėdami pamatyti stoties vardą.

Tada spustelėkite, norėdami matyti oro stebėjimo ir prognozės.

Norėdami pakeisti žemėlapį: spustelėkite ant žalios mygtukų su juodo kryžiaus žemyn,; žalią mygtuką su brūkšneliu, jei norite nutolinti; arba žalių rodyklių gretimoms žemėlapius.


METAR-TAF: